Terminal Aerodrome Forecast
Issued by NWS

Home | Current Version | Previous Version | Text Only | Print | Product List | Glossary On
Versions: 1 2 3 4 5 6 7 8 9 10 11 12 13 14 15 16 17 18 19 20 21
000
FTAK31 PAJN 212300
TAFAWG
TAF
PAWG 212326Z 2200/2224 12010G20KT P6SM -SHRA FEW035 BKN050 OVC080
     FM220300 11015G25KT P6SM -SHRA OVC050
     FM220700 11013G23KT P6SM -SHRA OVC050
      AMD LTD TO CLD VIS AND WIND 2206/2215=

USA.gov is the U.S. government's official web portal to all federal, state and local government web resources and services.